Time;durP1;ratioP1;P1;durP2;ratioP2;P2;SDS_P1;SDS_P2;PMS_P1;PMS_P2;Temp;Humidity;BMP_temperature;BMP_pressure;BME280_temperature;BME280_humidity;BME280_pressure;Samples;Min_cycle;Max_cycle;Signal;HPM_P1;HPM_P2
2022/01/07 00:01:56;;;;;;;31.95;7.93;;;;;;;2.94;100.00;101183.59;5011766;28;20545;-79
2022/01/07 00:04:21;;;;;;;31.05;8.77;;;;;;;2.96;100.00;101193.50;5005918;28;20034;-79
2022/01/07 00:06:47;;;;;;;33.97;8.32;;;;;;;2.96;100.00;101188.94;5017161;28;20061;-80
2022/01/07 00:09:12;;;;;;;36.53;9.15;;;;;;;3.00;100.00;101179.78;5015686;28;20117;-79
2022/01/07 00:11:38;;;;;;;27.05;8.48;;;;;;;2.99;100.00;101180.72;4989958;28;20359;-79
2022/01/07 00:14:03;;;;;;;26.08;7.45;;;;;;;3.02;100.00;101180.59;5000878;28;20386;-80
2022/01/07 00:16:29;;;;;;;18.55;6.97;;;;;;;3.04;100.00;101177.81;4999743;28;20132;-80
2022/01/07 00:18:56;;;;;;;25.38;8.20;;;;;;;3.04;100.00;101173.28;4998846;28;20485;-79
2022/01/07 00:21:22;;;;;;;26.98;8.38;;;;;;;3.05;100.00;101171.44;4999681;28;20041;-79
2022/01/07 00:23:48;;;;;;;29.35;9.40;;;;;;;3.05;100.00;101166.03;4993147;28;20034;-80
2022/01/07 00:26:14;;;;;;;36.17;8.45;;;;;;;3.07;100.00;101159.63;5017570;28;20041;-78
2022/01/07 00:28:39;;;;;;;36.80;8.75;;;;;;;3.09;100.00;101160.44;5013036;28;20037;-78
2022/01/07 00:31:05;;;;;;;21.08;7.75;;;;;;;3.10;100.00;101159.50;4983912;28;20026;-78
2022/01/07 00:33:30;;;;;;;24.65;9.32;;;;;;;3.05;100.00;101158.81;5002733;28;20035;-79
2022/01/07 00:35:56;;;;;;;28.80;7.95;;;;;;;3.12;100.00;101157.59;4999900;28;20030;-78
2022/01/07 00:38:23;;;;;;;37.63;9.80;;;;;;;3.11;100.00;101154.94;5014891;28;20038;-79
2022/01/07 00:40:48;;;;;;;32.60;9.15;;;;;;;3.07;100.00;101140.69;5008844;28;20041;-78
2022/01/07 00:43:14;;;;;;;25.08;7.28;;;;;;;3.11;100.00;101146.84;5002034;28;20067;-78
2022/01/07 00:45:40;;;;;;;27.88;7.15;;;;;;;3.08;100.00;101137.03;5000429;28;20034;-78
2022/01/07 00:48:06;;;;;;;29.92;7.82;;;;;;;3.09;100.00;101137.91;5002409;28;20088;-78
2022/01/07 00:50:33;;;;;;;19.30;7.90;;;;;;;3.03;100.00;101130.06;5017045;28;20497;-79
2022/01/07 00:52:59;;;;;;;27.88;8.02;;;;;;;3.03;100.00;101130.06;5003811;28;20034;-78
2022/01/07 00:55:26;;;;;;;24.85;7.75;;;;;;;2.97;100.00;101115.00;5015730;28;20030;-78
2022/01/07 00:57:53;;;;;;;18.63;5.28;;;;;;;3.06;100.00;101113.69;5006078;28;20466;-78
2022/01/07 01:00:21;;;;;;;21.75;6.18;;;;;;;3.02;100.00;101109.38;5015658;28;20033;-78
2022/01/07 01:02:47;;;;;;;16.88;5.05;;;;;;;3.04;100.00;101111.06;5018035;28;20149;-78
2022/01/07 01:05:14;;;;;;;17.73;6.50;;;;;;;3.00;100.00;101105.84;5005144;28;20038;-78
2022/01/07 01:07:40;;;;;;;23.02;7.57;;;;;;;2.97;100.00;101106.88;5011270;28;20030;-78
2022/01/07 01:10:07;;;;;;;29.17;7.45;;;;;;;2.96;100.00;101113.22;5008679;28;20073;-78
2022/01/07 01:12:37;;;;;;;16.40;6.68;;;;;;;2.91;100.00;101104.44;5000574;28;20048;-78
2022/01/07 01:15:05;;;;;;;23.83;6.70;;;;;;;2.89;100.00;101104.50;5018311;28;20474;-79
2022/01/07 01:17:31;;;;;;;28.23;6.55;;;;;;;2.81;100.00;101093.13;5017055;28;20061;-78
2022/01/07 01:19:56;;;;;;;27.33;8.25;;;;;;;2.71;100.00;101095.34;4990831;28;20042;-78
2022/01/07 01:22:22;;;;;;;27.08;6.35;;;;;;;2.74;100.00;101084.41;5004708;28;20049;-78
2022/01/07 01:24:47;;;;;;;17.90;5.32;;;;;;;2.73;100.00;101079.06;5014244;28;20033;-78
2022/01/07 01:27:13;;;;;;;18.10;6.95;;;;;;;2.70;100.00;101074.66;5007669;28;20129;-79
2022/01/07 01:29:38;;;;;;;29.88;9.68;;;;;;;2.64;100.00;101065.94;4999616;28;20089;-79
2022/01/07 01:32:04;;;;;;;23.98;7.63;;;;;;;2.61;100.00;101053.44;5012534;28;20117;-78
2022/01/07 01:34:30;;;;;;;21.83;7.40;;;;;;;2.68;100.00;101054.94;5006496;28;20046;-78
2022/01/07 01:36:56;;;;;;;30.08;7.35;;;;;;;2.61;100.00;101056.16;4991342;28;20133;-78
2022/01/07 01:39:22;;;;;;;29.08;6.28;;;;;;;2.60;100.00;101051.69;5015955;28;20026;-77
2022/01/07 01:41:48;;;;;;;17.60;6.68;;;;;;;2.60;100.00;101051.69;5016641;28;20060;-78
2022/01/07 01:44:13;;;;;;;23.85;7.47;;;;;;;2.61;100.00;101042.63;5014615;28;20105;-78
2022/01/07 01:46:39;;;;;;;20.73;6.45;;;;;;;2.61;100.00;101039.94;5012390;28;20033;-78
2022/01/07 01:49:05;;;;;;;19.88;7.03;;;;;;;2.61;100.00;101037.22;5018723;28;20112;-78
2022/01/07 01:51:32;;;;;;;22.50;6.15;;;;;;;2.66;100.00;101029.78;5018873;28;20034;-78
2022/01/07 01:53:57;;;;;;;19.88;6.95;;;;;;;2.70;100.00;101031.41;5018751;28;20030;-78
2022/01/07 01:56:23;;;;;;;15.68;4.47;;;;;;;2.72;100.00;101016.00;5014296;28;20045;-78
2022/01/07 01:58:48;;;;;;;24.85;5.88;;;;;;;2.75;100.00;101020.38;5013046;28;20034;-78
2022/01/07 02:01:14;;;;;;;25.67;6.03;;;;;;;2.79;100.00;101015.72;5010172;28;20026;-78
2022/01/07 02:03:40;;;;;;;18.67;5.53;;;;;;;2.81;100.00;101011.16;5015419;28;20216;-78
2022/01/07 02:06:05;;;;;;;23.15;6.07;;;;;;;2.80;100.00;101012.94;5003629;28;20050;-78
2022/01/07 02:08:31;;;;;;;18.02;5.10;;;;;;;2.86;100.00;101007.28;4999386;28;20030;-78
2022/01/07 02:10:58;;;;;;;10.45;4.20;;;;;;;2.85;100.00;101005.50;5005565;28;20026;-78
2022/01/07 02:13:24;;;;;;;17.50;5.28;;;;;;;2.85;100.00;100993.81;5016442;28;20486;-78
2022/01/07 02:15:49;;;;;;;21.30;5.43;;;;;;;2.90;100.00;100986.38;5017412;28;20038;-78
2022/01/07 02:18:18;;;;;;;21.27;5.68;;;;;;;2.81;100.00;100970.59;4993223;28;20032;-78
2022/01/07 02:20:44;;;;;;;21.98;5.68;;;;;;;2.86;100.00;100972.13;5016808;28;20053;-78
2022/01/07 02:23:09;;;;;;;11.57;4.30;;;;;;;2.81;100.00;100971.47;5000794;28;20096;-78
2022/01/07 02:25:35;;;;;;;21.40;6.03;;;;;;;2.87;100.00;100970.28;5006000;28;20038;-78
2022/01/07 02:28:01;;;;;;;24.25;5.90;;;;;;;2.91;100.00;100972.78;5000523;28;20030;-78
2022/01/07 02:30:29;;;;;;;21.40;6.75;;;;;;;2.85;100.00;100959.53;4993667;28;20042;-78
2022/01/07 02:32:55;;;;;;;17.10;5.85;;;;;;;2.86;100.00;100944.22;4982024;28;20034;-77
2022/01/07 02:35:27;;;;;;;18.33;5.80;;;;;;;2.95;100.00;100954.59;5012249;28;20029;-79
2022/01/07 02:37:53;;;;;;;12.00;5.05;;;;;;;2.94;100.00;100952.84;5012521;28;20401;-78
2022/01/07 02:40:19;;;;;;;20.50;5.57;;;;;;;2.98;100.00;100957.16;5006873;28;20037;-78
2022/01/07 02:42:45;;;;;;;16.27;4.88;;;;;;;2.96;100.00;100950.94;5016508;28;20054;-78
2022/01/07 02:45:13;;;;;;;14.85;5.18;;;;;;;3.00;100.00;100954.38;5000504;28;20038;-78
2022/01/07 02:47:59;;;;;;;20.02;4.13;;;;;;;2.98;100.00;100946.34;5005496;28;20026;-78
2022/01/07 02:50:34;;;;;;;17.13;4.80;;;;;;;3.06;100.00;100951.41;5000317;28;20144;-79
2022/01/07 02:53:00;;;;;;;15.52;4.70;;;;;;;3.08;100.00;100942.28;4992499;28;20085;-78
2022/01/07 02:55:26;;;;;;;21.75;4.07;;;;;;;3.02;100.00;100939.84;5010991;28;20101;-77
2022/01/07 02:57:53;;;;;;;18.73;4.85;;;;;;;3.10;100.00;100944.91;4997742;28;20077;-78
2022/01/07 03:00:21;;;;;;;18.60;5.47;;;;;;;3.10;100.00;100939.50;5017735;28;20505;-79
2022/01/07 03:02:48;;;;;;;9.18;3.38;;;;;;;3.10;100.00;100937.69;4997738;28;20061;-79
2022/01/07 03:05:15;;;;;;;19.02;4.30;;;;;;;3.09;100.00;100935.91;4990603;28;20052;-79
2022/01/07 03:07:42;;;;;;;13.80;5.07;;;;;;;3.07;100.00;100937.81;5016409;28;20099;-79
2022/01/07 03:10:09;;;;;;;20.08;4.78;;;;;;;3.05;100.00;100931.59;5010430;28;20030;-79
2022/01/07 03:12:37;;;;;;;20.30;4.50;;;;;;;3.04;100.00;100932.53;5004753;28;20115;-79
2022/01/07 03:15:07;;;;;;;10.32;4.40;;;;;;;3.04;100.00;100924.44;5000361;28;20710;-78
2022/01/07 03:17:32;;;;;;;17.85;4.05;;;;;;;3.12;100.00;100927.66;5000965;28;20474;-79
2022/01/07 03:19:58;;;;;;;18.02;4.15;;;;;;;3.08;100.00;100917.03;5014447;28;20030;-78
2022/01/07 03:22:23;;;;;;;18.52;3.72;;;;;;;3.05;100.00;100920.78;5013908;28;20037;-78
2022/01/07 03:24:49;;;;;;;20.02;4.07;;;;;;;2.98;100.00;100913.03;5011365;28;20026;-79
2022/01/07 03:27:14;;;;;;;22.23;4.90;;;;;;;2.94;100.00;100904.19;4981324;28;20074;-79
2022/01/07 03:29:40;;;;;;;9.82;4.03;;;;;;;2.84;100.00;100902.88;5010806;28;20034;-79
2022/01/07 03:32:06;;;;;;;7.68;3.65;;;;;;;2.76;100.00;100909.47;5012746;28;20030;-79
2022/01/07 03:34:31;;;;;;;11.18;4.07;;;;;;;2.75;100.00;100898.72;4982814;28;20035;-78
2022/01/07 03:36:57;;;;;;;14.27;3.55;;;;;;;2.62;100.00;100894.84;5017127;28;20030;-79
2022/01/07 03:39:23;;;;;;;14.25;5.18;;;;;;;2.62;100.00;100900.25;5016846;28;20382;-78
2022/01/07 03:41:49;;;;;;;28.23;5.55;;;;;;;2.55;100.00;100888.84;5016760;28;20042;-78
2022/01/07 03:44:14;;;;;;;14.68;5.60;;;;;;;2.55;100.00;100887.00;5007615;28;20379;-79
2022/01/07 03:46:40;;;;;;;31.08;5.07;;;;;;;2.54;100.00;100870.84;5013255;28;20030;-79
2022/01/07 03:49:05;;;;;;;18.70;4.55;;;;;;;2.60;100.00;100885.94;5004967;28;20061;-79
2022/01/07 03:51:31;;;;;;;14.65;4.93;;;;;;;2.62;100.00;100882.19;5002624;28;20084;-78
2022/01/07 03:53:56;;;;;;;17.42;3.90;;;;;;;2.57;100.00;100868.91;5017668;28;20401;-78
2022/01/07 03:56:21;;;;;;;16.38;3.97;;;;;;;2.59;100.00;100863.41;5014530;28;20034;-78
2022/01/07 03:58:47;;;;;;;14.77;4.68;;;;;;;2.57;100.00;100866.22;4982255;28;20046;-78
2022/01/07 04:01:13;;;;;;;28.10;5.55;;;;;;;2.58;100.00;100857.13;5000320;28;20034;-79
2022/01/07 04:03:39;;;;;;;13.43;3.75;;;;;;;2.60;100.00;100869.72;5008537;28;20162;-78
2022/01/07 04:06:05;;;;;;;20.38;4.68;;;;;;;2.55;100.00;100859.09;5000801;28;20178;-79
2022/01/07 04:08:30;;;;;;;17.88;3.58;;;;;;;2.56;100.00;100860.88;5002316;28;20035;-78
2022/01/07 04:10:55;;;;;;;25.75;5.63;;;;;;;2.58;100.00;100848.16;4997679;28;20034;-78
2022/01/07 04:13:21;;;;;;;16.38;5.00;;;;;;;2.60;100.00;100850.78;5015376;28;20100;-78
2022/01/07 04:15:46;;;;;;;23.52;4.65;;;;;;;2.57;100.00;100852.69;5006731;28;20113;-78
2022/01/07 04:18:12;;;;;;;28.33;5.85;;;;;;;2.56;100.00;100848.22;5003899;28;20026;-78
2022/01/07 04:20:37;;;;;;;20.98;5.10;;;;;;;2.50;100.00;100844.94;5016933;28;20041;-78
2022/01/07 04:23:05;;;;;;;16.27;4.20;;;;;;;2.47;100.00;100856.75;4996724;28;20053;-78
2022/01/07 04:25:31;;;;;;;15.82;4.30;;;;;;;2.44;100.00;100856.88;5015274;28;20041;-78
2022/01/07 04:28:02;;;;;;;16.23;4.10;;;;;;;2.39;100.00;100858.91;5014142;28;20046;-77
2022/01/07 04:30:44;;;;;;;7.53;3.95;;;;;;;2.39;100.00;100857.13;5016362;28;20474;-77
2022/01/07 04:33:13;;;;;;;18.60;4.15;;;;;;;2.34;100.00;100855.56;5015640;28;20030;-77
2022/01/07 04:35:39;;;;;;;9.93;4.28;;;;;;;2.31;100.00;100862.00;5009092;28;20063;-78
2022/01/07 04:38:06;;;;;;;9.57;3.38;;;;;;;2.28;100.00;100843.22;5014602;28;20049;-77
2022/01/07 04:40:32;;;;;;;13.98;5.75;;;;;;;2.27;100.00;100849.56;5008131;28;20072;-78
2022/01/07 04:42:59;;;;;;;15.52;5.43;;;;;;;2.27;100.00;100848.69;5015359;28;20086;-78
2022/01/07 04:45:26;;;;;;;11.00;4.85;;;;;;;2.26;100.00;100850.47;5013300;28;20164;-78
2022/01/07 04:47:51;;;;;;;16.50;6.38;;;;;;;2.23;100.00;100858.75;5020568;28;20038;-79
2022/01/07 04:50:21;;;;;;;14.52;5.47;;;;;;;2.26;100.00;100852.31;4999700;28;20080;-78
2022/01/07 04:52:48;;;;;;;13.15;5.72;;;;;;;2.26;100.00;100852.31;5007990;28;20018;-78
2022/01/07 04:55:17;;;;;;;10.57;5.20;;;;;;;2.28;100.00;100861.22;5025903;28;20123;-79
2022/01/07 04:57:44;;;;;;;13.57;4.53;;;;;;;2.23;100.00;100844.34;5001630;28;20557;-78
2022/01/07 05:00:11;;;;;;;17.98;6.38;;;;;;;2.30;100.00;100856.66;5008382;28;20068;-78
2022/01/07 05:02:37;;;;;;;16.15;6.88;;;;;;;2.30;100.00;100843.16;5010900;28;20058;-78
2022/01/07 05:05:03;;;;;;;13.88;4.55;;;;;;;2.30;100.00;100838.63;5007807;28;20038;-77
2022/01/07 05:07:29;;;;;;;12.63;6.25;;;;;;;2.37;100.00;100841.91;5015048;28;20050;-78
2022/01/07 05:09:55;;;;;;;11.88;6.40;;;;;;;2.33;100.00;100835.78;5002643;28;20033;-78
2022/01/07 05:12:20;;;;;;;15.27;5.28;;;;;;;2.36;100.00;100832.03;5013395;28;20053;-78
2022/01/07 05:14:46;;;;;;;23.77;7.03;;;;;;;2.35;100.00;100830.31;5012589;28;20049;-78
2022/01/07 05:17:11;;;;;;;18.55;6.95;;;;;;;2.43;100.00;100836.22;5000682;28;20030;-77
2022/01/07 05:19:37;;;;;;;16.30;6.68;;;;;;;2.44;100.00;100832.56;5015239;28;20065;-77
2022/01/07 05:22:02;;;;;;;16.10;6.55;;;;;;;2.50;100.00;100837.69;5015645;28;20041;-78
2022/01/07 05:24:28;;;;;;;23.45;7.10;;;;;;;2.42;100.00;100839.88;5016118;28;20048;-79
2022/01/07 05:26:53;;;;;;;21.40;8.02;;;;;;;2.43;100.00;100829.94;5003216;28;20034;-79
2022/01/07 05:29:19;;;;;;;13.88;6.65;;;;;;;2.48;100.00;100836.03;5028897;28;20030;-78
2022/01/07 05:31:44;;;;;;;12.38;5.65;;;;;;;2.52;100.00;100826.81;5008865;28;20037;-77
2022/01/07 05:34:10;;;;;;;22.52;7.80;;;;;;;2.61;100.00;100828.22;5000504;28;20046;-78
2022/01/07 05:36:37;;;;;;;23.85;7.93;;;;;;;2.60;100.00;100830.03;5018126;28;20035;-78
2022/01/07 05:39:03;;;;;;;19.15;7.43;;;;;;;2.55;100.00;100823.97;5012975;28;20034;-78
2022/01/07 05:41:28;;;;;;;24.58;7.90;;;;;;;2.58;100.00;100821.13;5013891;28;20096;-78
2022/01/07 05:43:54;;;;;;;18.08;7.45;;;;;;;2.60;100.00;100818.38;5003404;28;20034;-79
2022/01/07 05:46:19;;;;;;;15.68;6.25;;;;;;;2.65;100.00;100816.31;5017890;28;20041;-78
2022/01/07 05:48:46;;;;;;;17.33;7.80;;;;;;;2.64;100.00;100817.25;5015217;28;20030;-78
2022/01/07 05:51:13;;;;;;;23.85;7.78;;;;;;;2.64;100.00;100818.16;5013138;28;20057;-78
2022/01/07 05:53:39;;;;;;;19.30;8.82;;;;;;;2.71;100.00;100819.59;5012780;28;20046;-78
2022/01/07 05:56:05;;;;;;;15.48;6.93;;;;;;;2.71;100.00;100818.75;5008695;28;20073;-77
2022/01/07 05:58:31;;;;;;;24.08;7.13;;;;;;;2.71;100.00;100814.19;5001460;28;20359;-79
2022/01/07 06:00:57;;;;;;;15.07;6.93;;;;;;;2.73;100.00;100814.13;5002140;28;20139;-77
2022/01/07 06:03:22;;;;;;;11.85;5.63;;;;;;;2.72;100.00;100809.66;5013359;28;20464;-77
2022/01/07 06:05:48;;;;;;;24.15;9.68;;;;;;;2.71;100.00;100803.38;5009341;28;20030;-77
2022/01/07 06:08:14;;;;;;;18.65;8.40;;;;;;;2.80;100.00;100801.19;5001117;28;20065;-78
2022/01/07 06:10:39;;;;;;;21.85;9.57;;;;;;;2.82;100.00;100800.19;4997261;28;20030;-77
2022/01/07 06:13:05;;;;;;;17.52;8.43;;;;;;;2.81;100.00;100793.00;5011111;28;20458;-78
2022/01/07 06:15:30;;;;;;;24.88;9.43;;;;;;;2.83;100.00;100792.94;5017503;28;20034;-78
2022/01/07 06:17:56;;;;;;;20.00;8.80;;;;;;;2.80;100.00;100793.09;5012720;28;20116;-78
2022/01/07 06:20:22;;;;;;;13.88;7.57;;;;;;;2.83;100.00;100792.94;5007275;28;20044;-78
2022/01/07 06:22:48;;;;;;;26.25;9.63;;;;;;;2.87;100.00;100808.06;5020203;28;20034;-77
2022/01/07 06:25:14;;;;;;;22.10;8.63;;;;;;;2.89;100.00;100798.06;4998917;28;20038;-78
2022/01/07 06:27:40;;;;;;;17.00;7.25;;;;;;;2.93;100.00;100802.34;5009922;28;20041;-77
2022/01/07 06:30:07;;;;;;;22.70;9.88;;;;;;;2.89;100.00;100801.63;5011858;28;20034;-77
2022/01/07 06:32:33;;;;;;;17.80;8.75;;;;;;;2.94;100.00;100812.22;5005196;28;20022;-78
2022/01/07 06:34:59;;;;;;;21.92;9.23;;;;;;;2.98;100.00;100807.56;5003826;28;20052;-77
2022/01/07 06:37:24;;;;;;;24.52;9.20;;;;;;;2.99;100.00;100817.44;5009901;28;20037;-77
2022/01/07 06:39:50;;;;;;;21.92;10.02;;;;;;;3.00;100.00;100813.75;5009374;28;20030;-77
2022/01/07 06:42:15;;;;;;;23.25;11.02;;;;;;;3.03;100.00;100817.19;5005889;28;20026;-78
2022/01/07 06:44:41;;;;;;;21.83;9.45;;;;;;;3.03;100.00;100800.09;4995368;28;20413;-78
2022/01/07 06:47:06;;;;;;;26.35;10.45;;;;;;;3.02;100.00;100810.03;4997668;28;20494;-78
2022/01/07 06:49:32;;;;;;;16.75;7.93;;;;;;;3.09;100.00;100807.91;4991713;28;20048;-78
2022/01/07 06:51:57;;;;;;;18.23;9.43;;;;;;;3.11;100.00;100806.88;5007612;28;20470;-78
2022/01/07 06:54:24;;;;;;;27.02;9.23;;;;;;;3.17;100.00;100807.53;5010564;28;20034;-78
2022/01/07 06:56:49;;;;;;;25.83;10.13;;;;;;;3.17;100.00;100811.13;5017471;28;20040;-78
2022/01/07 06:59:15;;;;;;;20.55;8.65;;;;;;;3.17;100.00;100810.25;5007294;28;20042;-77
2022/01/07 07:01:42;;;;;;;20.75;8.18;;;;;;;3.21;100.00;100804.59;5013164;28;20109;-78
2022/01/07 07:04:08;;;;;;;31.00;11.32;;;;;;;3.21;100.00;100801.88;5010586;28;20026;-77
2022/01/07 07:06:34;;;;;;;24.75;9.43;;;;;;;3.23;100.00;100805.41;5016725;28;20072;-77
2022/01/07 07:09:02;;;;;;;21.00;10.80;;;;;;;3.24;100.00;100815.25;5011299;28;20046;-78
2022/01/07 07:11:27;;;;;;;38.13;10.52;;;;;;;3.26;100.00;100809.78;5005244;28;20036;-77
2022/01/07 07:13:53;;;;;;;26.88;10.65;;;;;;;3.27;100.00;100806.13;5008482;28;20042;-78
2022/01/07 07:16:18;;;;;;;26.02;10.13;;;;;;;3.28;100.00;100811.47;5011080;28;20028;-77
2022/01/07 07:18:43;;;;;;;33.47;11.70;;;;;;;3.32;100.00;100814.88;4992557;28;20101;-77
2022/01/07 07:21:09;;;;;;;28.90;11.38;;;;;;;3.35;100.00;100813.88;4996755;28;20056;-77
2022/01/07 07:23:34;;;;;;;31.55;11.95;;;;;;;3.35;100.00;100825.56;5004599;28;20041;-77
2022/01/07 07:26:00;;;;;;;28.88;10.25;;;;;;;3.38;100.00;100821.81;5006990;28;20030;-77
2022/01/07 07:28:25;;;;;;;30.60;12.07;;;;;;;3.40;100.00;100822.63;4999512;28;20088;-78
2022/01/07 07:30:54;;;;;;;28.77;11.63;;;;;;;3.36;100.00;100821.91;5019976;28;20051;-77
2022/01/07 07:38:36;;;;;;;31.30;11.18;;;;;;;3.50;100.00;100826.63;4998788;28;20079;-78
2022/01/07 07:41:02;;;;;;;28.45;12.05;;;;;;;3.43;100.00;100809.81;5013278;28;20102;-78
2022/01/07 07:43:28;;;;;;;29.48;10.02;;;;;;;3.49;100.00;100811.31;5006712;28;20029;-78
2022/01/07 07:45:53;;;;;;;29.80;11.93;;;;;;;3.53;100.00;100826.47;5003728;28;20046;-79
2022/01/07 07:48:19;;;;;;;29.88;12.73;;;;;;;3.49;100.00;100817.63;5012847;28;20153;-80
2022/01/07 07:50:44;;;;;;;28.80;13.15;;;;;;;3.57;100.00;100810.94;5014943;28;20099;-79
2022/01/07 07:53:11;;;;;;;30.25;12.07;;;;;;;3.58;100.00;100810.88;5001131;28;20470;-79
2022/01/07 07:55:37;;;;;;;30.42;10.73;;;;;;;3.58;100.00;100818.13;5004286;28;20030;-78
2022/01/07 07:58:02;;;;;;;29.45;12.23;;;;;;;3.64;100.00;100817.78;5013357;28;20116;-78
2022/01/07 08:00:28;;;;;;;30.65;13.00;;;;;;;3.62;100.00;100825.13;4983695;28;20054;-79
2022/01/07 08:02:57;;;;;;;28.63;11.88;;;;;;;3.62;100.00;100820.59;5015334;28;20485;-78
2022/01/07 08:05:23;;;;;;;33.65;12.57;;;;;;;3.68;100.00;100809.44;5002202;28;20100;-78
2022/01/07 08:07:49;;;;;;;44.65;14.52;;;;;;;3.66;100.00;100799.66;5014120;28;20481;-79
2022/01/07 08:10:21;;;;;;;32.38;11.93;;;;;;;3.69;100.00;100807.63;4990371;28;20041;-79
2022/01/07 08:18:15;;;;;;;24.20;11.52;;;;;;;3.72;100.00;100804.72;5001221;28;20481;-80
2022/01/07 08:20:40;;;;;;;27.35;11.32;;;;;;;3.72;100.00;100796.63;5011004;28;20038;-80
2022/01/07 08:23:06;;;;;;;29.45;13.52;;;;;;;3.76;100.00;100802.78;5003336;28;20101;-79
2022/01/07 08:25:32;;;;;;;28.00;12.98;;;;;;;3.80;100.00;100799.81;5018266;28;20038;-78
2022/01/07 08:28:03;;;;;;;27.75;10.48;;;;;;;3.79;100.00;100811.59;5010785;28;20084;-78
2022/01/07 08:30:35;;;;;;;27.70;11.07;;;;;;;3.83;100.00;100807.78;4999403;28;20124;-79
2022/01/07 08:35:47;;;;;;;24.02;11.50;;;;;;;3.89;100.00;100795.75;5013001;28;20082;-77
2022/01/07 08:38:12;;;;;;;25.70;11.05;;;;;;;3.90;100.00;100783.94;5001601;28;20060;-78
2022/01/07 08:40:38;;;;;;;26.10;10.95;;;;;;;3.90;100.00;100805.63;5011489;28;20033;-77
2022/01/07 08:43:04;;;;;;;33.40;12.45;;;;;;;3.93;100.00;100804.59;5001671;28;20457;-78
2022/01/07 08:45:29;;;;;;;21.27;10.60;;;;;;;3.92;100.00;100794.69;5015062;28;20048;-78
2022/01/07 08:47:56;;;;;;;28.70;10.13;;;;;;;4.00;100.00;100792.47;5011551;28;20049;-80
2022/01/07 08:50:22;;;;;;;32.33;11.75;;;;;;;3.97;100.00;100795.38;4997773;28;20053;-78
2022/01/07 08:52:48;;;;;;;23.45;10.40;;;;;;;3.95;100.00;100775.59;5006612;28;20069;-77
2022/01/07 08:55:13;;;;;;;29.80;11.25;;;;;;;3.97;100.00;100792.66;5006646;28;20105;-78
2022/01/07 08:57:39;;;;;;;23.80;11.43;;;;;;;3.98;100.00;100797.97;5012417;28;20030;-79
2022/01/07 09:00:05;;;;;;;23.50;9.98;;;;;;;3.96;100.00;100794.47;5000498;28;20061;-78
2022/01/07 09:02:31;;;;;;;25.48;11.27;;;;;;;4.04;100.00;100788.66;5015333;28;20120;-78
2022/01/07 09:04:56;;;;;;;26.13;10.90;;;;;;;4.03;100.00;100786.88;5008221;28;20065;-79
2022/01/07 09:07:22;;;;;;;23.17;10.10;;;;;;;4.03;100.00;100785.06;5006521;28;20037;-78
2022/01/07 09:09:48;;;;;;;19.05;8.57;;;;;;;4.04;100.00;100785.94;5003339;28;20089;-78
2022/01/07 09:12:13;;;;;;;19.75;9.52;;;;;;;4.03;100.00;100790.50;5012187;28;20026;-78
2022/01/07 09:14:39;;;;;;;23.45;10.73;;;;;;;4.03;100.00;100801.34;5006021;28;20506;-77
2022/01/07 09:17:06;;;;;;;22.65;10.00;;;;;;;4.09;100.00;100796.53;5007520;28;20034;-77
2022/01/07 09:19:31;;;;;;;29.00;10.95;;;;;;;4.09;100.00;100805.53;4999584;28;20492;-78
2022/01/07 09:21:57;;;;;;;22.70;9.77;;;;;;;4.12;100.00;100801.81;5008492;28;20084;-79
2022/01/07 09:24:23;;;;;;;26.27;10.15;;;;;;;4.10;100.00;100796.47;5012584;28;20034;-78
2022/01/07 09:26:48;;;;;;;17.20;7.50;;;;;;;4.15;100.00;100807.94;4998177;28;20510;-78
2022/01/07 09:29:14;;;;;;;17.98;8.02;;;;;;;4.11;100.00;100791.91;5006841;28;20036;-79
2022/01/07 09:31:40;;;;;;;21.52;9.55;;;;;;;4.21;100.00;100804.91;5012781;28;20555;-77
2022/01/07 09:34:06;;;;;;;23.58;9.88;;;;;;;4.26;100.00;100798.34;5013959;28;20033;-78
2022/01/07 09:36:32;;;;;;;25.80;9.18;;;;;;;4.24;100.00;100810.13;4996623;28;20034;-79
2022/01/07 09:38:59;;;;;;;18.80;8.70;;;;;;;4.26;100.00;100809.19;5013524;28;20049;-80
2022/01/07 09:41:25;;;;;;;18.50;7.70;;;;;;;4.19;100.00;100809.50;5000019;28;20038;-80
2022/01/07 09:43:50;;;;;;;19.05;8.07;;;;;;;4.15;100.00;100801.59;5010778;28;20041;-80
2022/01/07 09:46:18;;;;;;;22.30;7.68;;;;;;;4.18;100.00;100807.75;5007496;28;20053;-79
2022/01/07 09:48:44;;;;;;;22.58;9.75;;;;;;;4.26;100.00;100812.75;5013352;28;20100;-79
2022/01/07 09:51:11;;;;;;;21.70;9.65;;;;;;;4.24;100.00;100815.53;5008746;28;20042;-79
2022/01/07 09:53:37;;;;;;;25.38;8.15;;;;;;;4.28;100.00;100813.56;4996341;28;20037;-80
2022/01/07 09:56:04;;;;;;;26.42;10.05;;;;;;;4.37;100.00;100799.50;4999632;28;20031;-79
2022/01/07 09:58:31;;;;;;;18.08;7.53;;;;;;;4.43;100.00;100787.47;5001268;28;20172;-79
2022/01/07 10:01:05;;;;;;;27.67;9.93;;;;;;;4.54;100.00;100795.91;5002047;28;20030;-79
2022/01/07 10:03:37;;;;;;;25.08;8.00;;;;;;;4.57;100.00;100792.97;5009979;28;20491;-81
2022/01/07 10:06:19;;;;;;;13.18;6.65;;;;;;;4.71;100.00;100780.53;4993190;28;20030;-79
2022/01/07 10:08:46;;;;;;;16.63;7.93;;;;;;;4.70;100.00;100778.75;5009747;28;20037;-79
2022/01/07 10:11:16;;;;;;;33.95;8.30;;;;;;;4.68;100.00;100777.97;5020618;28;20477;-79
2022/01/07 10:14:03;;;;;;;15.45;7.93;;;;;;;4.67;100.00;100777.06;5011937;28;20026;-79
2022/01/07 10:16:29;;;;;;;16.38;7.13;;;;;;;4.72;100.00;100776.81;5006309;28;20065;-78
2022/01/07 10:18:54;;;;;;;18.83;8.00;;;;;;;4.71;100.00;100775.97;5008794;28;20645;-79
2022/01/07 10:21:21;;;;;;;23.13;8.60;;;;;;;4.68;100.00;100777.97;5011003;28;20073;-78
2022/01/07 10:23:47;;;;;;;35.83;8.50;;;;;;;4.71;100.00;100783.22;5016357;28;20105;-79
2022/01/07 10:26:14;;;;;;;22.27;8.25;;;;;;;4.59;100.00;100782.94;5005909;28;20038;-79
2022/01/07 10:28:40;;;;;;;18.38;7.63;;;;;;;4.63;100.00;100777.38;5006172;28;20075;-78
2022/01/07 10:31:07;;;;;;;24.63;7.13;;;;;;;4.64;100.00;100781.81;5000401;28;20038;-79
2022/01/07 10:33:40;;;;;;;19.00;7.05;;;;;;;4.62;100.00;100781.88;5014335;28;20036;-79
2022/01/07 10:36:08;;;;;;;;;;;;;;;4.64;100.00;100777.28;5000031;28;20034;-79
2022/01/07 10:38:44;;;;;;;12.65;6.20;;;;;;;4.66;100.00;100769.06;5010424;28;19925;-79
2022/01/07 10:41:12;;;;;;;21.83;7.78;;;;;;;4.85;100.00;100758.03;5007628;28;20356;-78
2022/01/07 10:43:38;;;;;;;11.30;5.50;;;;;;;5.06;100.00;100753.22;5008323;28;20056;-79
2022/01/07 10:46:19;;;;;;;14.65;7.20;;;;;;;5.01;100.00;100753.47;5005116;28;20419;-79
2022/01/07 10:48:58;;;;;;;17.02;5.78;;;;;;;4.97;100.00;100752.78;5010772;28;20049;-79
2022/01/07 10:51:26;;;;;;;16.65;7.05;;;;;;;5.01;100.00;100753.47;5001405;28;20038;-79
2022/01/07 10:53:59;;;;;;;24.70;7.22;;;;;;;5.53;100.00;100754.97;5009876;28;20022;-81
2022/01/07 10:56:31;;;;;;;20.85;6.22;;;;;;;5.41;100.00;100755.69;5006478;28;20039;-79
2022/01/07 10:59:03;;;;;;;19.80;6.72;;;;;;;5.29;100.00;100746.44;5006242;28;20108;-79
2022/01/07 11:01:38;;;;;;;17.27;6.82;;;;;;;5.26;100.00;100746.63;5003140;28;20120;-79
2022/01/07 11:04:10;;;;;;;21.42;7.13;;;;;;;5.35;100.00;100746.09;5006952;28;20037;-79
2022/01/07 11:06:37;;;;;;;16.92;7.18;;;;;;;5.51;100.00;100743.34;5000963;28;20576;-79
2022/01/07 11:09:07;;;;;;;15.32;7.13;;;;;;;5.66;100.00;100731.53;5000400;28;20040;-79
2022/01/07 11:11:33;;;;;;;20.63;6.20;;;;;;;5.46;100.00;100729.13;5008249;28;20041;-79
2022/01/07 11:14:08;;;;;;;20.85;6.85;;;;;;;5.51;100.00;100733.34;5000001;28;20029;-79
2022/01/07 11:16:38;;;;;;;23.50;6.45;;;;;;;5.74;100.00;100725.66;5006150;28;20030;-79
2022/01/07 11:19:05;;;;;;;29.23;7.20;;;;;;;5.67;100.00;100727.88;5025778;28;20057;-79
2022/01/07 11:21:30;;;;;;;21.83;6.55;;;;;;;5.86;100.00;100724.00;4979486;28;20062;-78
2022/01/07 11:23:56;;;;;;;23.20;7.43;;;;;;;5.56;100.00;100732.19;5005667;28;20062;-78
2022/01/07 11:26:23;;;;;;;15.80;7.18;;;;;;;5.55;100.00;100730.44;4995456;28;20040;-79
2022/01/07 11:29:11;;;;;;;26.38;6.60;;;;;;;5.52;100.00;100734.22;5011435;28;20041;-77